Time;durP1;ratioP1;P1;durP2;ratioP2;P2;SDS_P1;SDS_P2;PMS_P1;PMS_P2;Temp;Humidity;BMP_temperature;BMP_pressure;BME280_temperature;BME280_humidity;BME280_pressure;Samples;Min_cycle;Max_cycle;Signal;HPM_P1;HPM_P2
2022/09/15 00:02:07;;;;;;;23.23;15.15;;;15.40;99.90;;;;;;5051703;28;20169;-82
2022/09/15 00:04:32;;;;;;;22.15;15.07;;;15.40;99.90;;;;;;5051501;28;20190;-81
2022/09/15 00:06:58;;;;;;;19.27;15.02;;;15.40;99.90;;;;;;5052583;28;20163;-81
2022/09/15 00:09:23;;;;;;;19.40;15.05;;;15.40;99.90;;;;;;5051273;28;20225;-82
2022/09/15 00:11:49;;;;;;;22.85;15.25;;;15.30;99.90;;;;;;5051527;28;20526;-82
2022/09/15 00:14:15;;;;;;;22.40;16.08;;;15.30;99.90;;;;;;5051025;28;20171;-81
2022/09/15 00:16:40;;;;;;;30.90;15.90;;;15.40;99.90;;;;;;5051605;28;20510;-82
2022/09/15 00:19:06;;;;;;;20.40;14.75;;;15.30;99.90;;;;;;5051299;28;20171;-82
2022/09/15 00:21:34;;;;;;;23.42;16.27;;;15.20;99.90;;;;;;5051345;28;20277;-82
2022/09/15 00:24:01;;;;;;;24.80;16.05;;;15.20;99.90;;;;;;5051417;28;20175;-81
2022/09/15 00:26:28;;;;;;;20.52;15.40;;;15.30;99.90;;;;;;5051956;28;20175;-82
2022/09/15 00:28:55;;;;;;;25.48;15.93;;;15.30;99.90;;;;;;5052684;28;20249;-83
2022/09/15 00:31:22;;;;;;;21.48;15.15;;;15.20;99.90;;;;;;5052722;28;20159;-82
2022/09/15 00:33:50;;;;;;;22.27;15.00;;;15.20;99.90;;;;;;5051461;28;20179;-82
2022/09/15 00:36:16;;;;;;;21.83;16.25;;;15.00;99.90;;;;;;5052402;28;20206;-82
2022/09/15 00:38:43;;;;;;;27.17;16.90;;;15.10;99.90;;;;;;5051382;28;20160;-82
2022/09/15 00:41:11;;;;;;;28.15;16.55;;;15.10;99.90;;;;;;5051327;28;20179;-82
2022/09/15 00:43:49;;;;;;;23.50;16.40;;;15.00;99.90;;;;;;5051152;28;20170;-82
2022/09/15 00:46:18;;;;;;;23.52;15.85;;;15.10;99.90;;;;;;5052300;28;20217;-81
2022/09/15 00:48:53;;;;;;;31.23;16.83;;;15.20;99.90;;;;;;5051076;28;20209;-82
2022/09/15 00:51:23;;;;;;;31.58;17.40;;;15.10;99.90;;;;;;5050822;28;20268;-82
2022/09/15 00:53:50;;;;;;;34.92;15.60;;;15.10;99.90;;;;;;5052559;28;20167;-82
2022/09/15 00:56:18;;;;;;;22.88;16.45;;;15.10;99.90;;;;;;5052138;28;20187;-82
2022/09/15 00:58:56;;;;;;;28.10;16.23;;;15.10;99.90;;;;;;5050544;28;20178;-83
2022/09/15 01:01:25;;;;;;;24.35;16.83;;;15.20;99.90;;;;;;5051916;28;20174;-82
2022/09/15 01:03:51;;;;;;;32.92;15.52;;;15.20;99.90;;;;;;5050513;28;20170;-81
2022/09/15 01:06:36;;;;;;;21.02;15.98;;;14.90;99.90;;;;;;5050278;28;20191;-81
2022/09/15 01:09:40;;;;;;;27.13;16.63;;;14.80;99.90;;;;;;5050067;28;20361;-83
2022/09/15 01:12:06;;;;;;;24.98;16.05;;;14.60;99.90;;;;;;5047097;28;20182;-81
2022/09/15 01:14:32;;;;;;;22.63;15.52;;;14.60;99.90;;;;;;5051640;28;20202;-81
2022/09/15 01:17:09;;;;;;;24.45;16.33;;;14.70;99.90;;;;;;5050515;28;20548;-83
2022/09/15 01:20:07;;;;;;;25.33;15.98;;;14.70;99.90;;;;;;5050608;28;20187;-82
2022/09/15 01:22:58;;;;;;;25.85;16.45;;;14.60;99.90;;;;;;5051744;28;20644;-82
2022/09/15 01:25:55;;;;;;;19.17;14.25;;;14.50;99.90;;;;;;5051653;28;20282;-81
2022/09/15 01:28:33;;;;;;;17.67;14.77;;;14.40;99.90;;;;;;5054381;28;20684;-82
2022/09/15 01:31:33;;;;;;;18.67;14.75;;;14.30;99.90;;;;;;5054466;28;20629;-82
2022/09/15 01:34:05;;;;;;;21.77;14.50;;;14.30;99.90;;;;;;5054586;28;20171;-81
2022/09/15 01:36:51;;;;;;;17.00;13.73;;;14.40;99.90;;;;;;5055639;28;20167;-81
2022/09/15 01:39:25;;;;;;;17.92;13.93;;;14.40;99.90;;;;;;5054816;28;20171;-82
2022/09/15 01:42:04;;;;;;;18.58;13.32;;;14.50;99.90;;;;;;5055611;28;20253;-82
2022/09/15 01:44:32;;;;;;;15.75;13.25;;;14.40;99.90;;;;;;5054466;28;20212;-82
2022/09/15 01:47:03;;;;;;;15.50;12.02;;;14.30;99.90;;;;;;5055538;28;20266;-82
2022/09/15 01:49:34;;;;;;;13.27;11.15;;;14.30;99.90;;;;;;5054351;28;20237;-82
2022/09/15 01:52:00;;;;;;;14.43;11.95;;;14.30;99.90;;;;;;5053920;28;20186;-83
2022/09/15 01:54:32;;;;;;;17.15;13.02;;;14.30;99.90;;;;;;5055449;28;20190;-82
2022/09/15 01:56:57;;;;;;;16.10;13.13;;;14.30;99.90;;;;;;5054293;28;20170;-83
2022/09/15 01:59:23;;;;;;;19.48;13.10;;;14.60;99.90;;;;;;5053836;28;20266;-82
2022/09/15 02:01:57;;;;;;;21.92;13.90;;;14.80;99.90;;;;;;5053724;28;20194;-82
2022/09/15 02:04:37;;;;;;;20.33;12.80;;;14.80;99.90;;;;;;5053288;28;20187;-82
2022/09/15 02:07:14;;;;;;;18.52;12.93;;;14.60;99.90;;;;;;5053613;28;20191;-81
2022/09/15 02:09:48;;;;;;;14.60;12.00;;;14.70;99.90;;;;;;5055994;28;20167;-82
2022/09/15 02:12:32;;;;;;;14.65;13.02;;;14.70;99.90;;;;;;5056463;28;20173;-82
2022/09/15 02:15:09;;;;;;;20.80;13.13;;;14.80;99.90;;;;;;5057001;28;20187;-82
2022/09/15 02:17:41;;;;;;;14.05;12.55;;;14.70;99.90;;;;;;5056836;28;20250;-82
2022/09/15 02:20:33;;;;;;;19.10;13.82;;;14.50;99.90;;;;;;5057265;28;20167;-83
2022/09/15 02:23:07;;;;;;;19.13;13.73;;;14.40;99.90;;;;;;5056468;28;20599;-82
2022/09/15 02:25:58;;;;;;;17.92;14.35;;;14.50;99.90;;;;;;5053039;28;20187;-82
2022/09/15 02:28:30;;;;;;;20.63;14.98;;;14.60;99.90;;;;;;5053300;28;20215;-82
2022/09/15 02:30:58;;;;;;;22.40;13.43;;;14.70;99.90;;;;;;5054621;28;20201;-83
2022/09/15 02:33:29;;;;;;;21.60;14.02;;;14.70;99.90;;;;;;5053494;28;20171;-82
2022/09/15 02:35:55;;;;;;;18.20;13.07;;;14.60;99.90;;;;;;5052773;28;20194;-83
2022/09/15 02:38:20;;;;;;;15.63;13.27;;;14.60;99.90;;;;;;5054949;28;20627;-82
2022/09/15 02:40:47;;;;;;;14.45;12.55;;;14.80;99.90;;;;;;5053482;28;20207;-83
2022/09/15 02:43:15;;;;;;;15.77;12.43;;;14.80;99.90;;;;;;5053059;28;20167;-82
2022/09/15 02:45:41;;;;;;;18.67;13.93;;;14.90;99.90;;;;;;5053286;28;20203;-83
2022/09/15 02:48:08;;;;;;;22.33;14.50;;;15.10;99.90;;;;;;5054363;28;20278;-83
2022/09/15 02:50:35;;;;;;;18.00;13.88;;;15.40;99.90;;;;;;5053510;28;20174;-84
2022/09/15 02:53:00;;;;;;;20.35;14.18;;;15.50;99.90;;;;;;5052864;28;20186;-82
2022/09/15 02:55:27;;;;;;;20.63;13.32;;;15.60;99.90;;;;;;5052576;28;20197;-83
2022/09/15 02:57:57;;;;;;;15.82;12.68;;;15.70;99.90;;;;;;5052731;28;20265;-83
2022/09/15 03:00:23;;;;;;;19.77;13.32;;;15.60;99.90;;;;;;5054218;28;20171;-84
2022/09/15 03:02:52;;;;;;;21.80;13.00;;;15.60;99.90;;;;;;5053121;28;20536;-82
2022/09/15 03:05:24;;;;;;;18.33;12.13;;;15.70;99.90;;;;;;5052659;28;20274;-85
2022/09/15 03:07:50;;;;;;;17.58;12.32;;;15.80;99.90;;;;;;5053728;28;20238;-83
2022/09/15 03:10:16;;;;;;;15.65;12.07;;;15.70;99.90;;;;;;5053095;28;20199;-82
2022/09/15 03:12:45;;;;;;;20.33;13.13;;;15.70;99.90;;;;;;5052878;28;20205;-81
2022/09/15 03:15:12;;;;;;;21.65;14.38;;;15.80;99.90;;;;;;5053208;28;20218;-82
2022/09/15 03:17:40;;;;;;;27.17;13.75;;;15.80;99.90;;;;;;5054535;28;20168;-83
2022/09/15 03:20:07;;;;;;;17.67;12.95;;;16.00;99.90;;;;;;5053754;28;20186;-82
2022/09/15 03:22:33;;;;;;;17.15;13.52;;;16.00;99.90;;;;;;5052967;28;20159;-83
2022/09/15 03:25:00;;;;;;;18.95;13.77;;;15.90;99.90;;;;;;5052489;28;20635;-83
2022/09/15 03:27:26;;;;;;;16.40;13.32;;;15.70;99.90;;;;;;5052697;28;20239;-83
2022/09/15 03:29:52;;;;;;;19.80;14.07;;;15.70;99.90;;;;;;5052171;28;20595;-83
2022/09/15 03:32:18;;;;;;;18.20;13.15;;;15.70;99.90;;;;;;5052010;28;20189;-82
2022/09/15 03:34:44;;;;;;;24.52;13.18;;;15.70;99.90;;;;;;5052108;28;20190;-86
2022/09/15 03:37:10;;;;;;;14.57;12.77;;;15.70;99.90;;;;;;5052349;28;20179;-82
2022/09/15 03:39:36;;;;;;;18.65;14.27;;;15.70;99.90;;;;;;5053943;28;20553;-82
2022/09/15 03:42:02;;;;;;;16.08;13.02;;;15.60;99.90;;;;;;5052540;28;20167;-82
2022/09/15 03:44:28;;;;;;;21.27;13.35;;;15.70;99.90;;;;;;5051892;28;20313;-82
2022/09/15 03:46:54;;;;;;;20.38;14.07;;;15.50;99.90;;;;;;5052627;28;20641;-82
2022/09/15 03:49:19;;;;;;;18.83;14.25;;;15.50;99.90;;;;;;5050650;28;20258;-82
2022/09/15 03:51:45;;;;;;;27.40;13.95;;;15.50;99.90;;;;;;5051960;28;20637;-81
2022/09/15 03:54:11;;;;;;;17.08;12.95;;;15.50;99.90;;;;;;5053251;28;20240;-84
2022/09/15 03:56:36;;;;;;;19.55;13.25;;;15.50;99.90;;;;;;5052297;28;20656;-82
2022/09/15 03:59:04;;;;;;;19.27;13.48;;;15.50;99.90;;;;;;5052397;28;20694;-83
2022/09/15 04:01:31;;;;;;;25.10;15.52;;;15.60;99.90;;;;;;5054209;28;20191;-83
2022/09/15 04:03:57;;;;;;;23.73;13.65;;;15.60;99.90;;;;;;5052232;28;20311;-82
2022/09/15 04:06:24;;;;;;;24.27;14.80;;;15.80;99.90;;;;;;5053191;28;20711;-83
2022/09/15 04:08:51;;;;;;;23.63;15.02;;;15.60;99.90;;;;;;5053188;28;20751;-87
2022/09/15 04:11:18;;;;;;;22.92;14.07;;;15.60;99.90;;;;;;5051541;28;20171;-84
2022/09/15 04:13:45;;;;;;;24.65;14.20;;;15.60;99.90;;;;;;5051773;28;20199;-83
2022/09/15 04:16:14;;;;;;;22.25;14.85;;;15.60;99.90;;;;;;5051833;28;20195;-84
2022/09/15 04:18:39;;;;;;;29.95;14.48;;;15.70;99.90;;;;;;5052243;28;20175;-83
2022/09/15 04:21:07;;;;;;;24.80;15.05;;;15.90;99.90;;;;;;5052618;28;20167;-84
2022/09/15 04:23:34;;;;;;;33.17;15.30;;;15.70;99.90;;;;;;5052744;28;20246;-83
2022/09/15 04:26:06;;;;;;;28.95;15.65;;;15.60;99.90;;;;;;5051251;28;20183;-84
2022/09/15 04:28:35;;;;;;;23.45;14.73;;;15.70;99.90;;;;;;5052258;28;20653;-83
2022/09/15 04:31:09;;;;;;;27.60;15.65;;;15.60;99.90;;;;;;5052510;28;20180;-82
2022/09/15 04:33:36;;;;;;;23.02;14.85;;;15.50;99.90;;;;;;5051726;28;20223;-84
2022/09/15 04:36:05;;;;;;;31.67;14.63;;;15.60;99.90;;;;;;5051315;28;20206;-83
2022/09/15 04:38:31;;;;;;;29.52;15.82;;;15.30;99.90;;;;;;5051021;28;20254;-83
2022/09/15 04:40:57;;;;;;;24.05;14.55;;;15.30;99.90;;;;;;5052859;28;20179;-82
2022/09/15 04:43:27;;;;;;;19.33;14.63;;;15.20;99.90;;;;;;5050605;28;20517;-82
2022/09/15 04:45:53;;;;;;;25.60;15.77;;;15.10;99.90;;;;;;5052300;28;20225;-82
2022/09/15 04:48:20;;;;;;;22.83;16.30;;;15.00;99.90;;;;;;5050613;28;20222;-82
2022/09/15 04:50:45;;;;;;;28.92;14.68;;;15.00;99.90;;;;;;5050992;28;20167;-83
2022/09/15 04:53:11;;;;;;;28.98;15.70;;;15.00;99.90;;;;;;5051256;28;20207;-83
2022/09/15 04:55:37;;;;;;;22.67;15.77;;;15.10;99.90;;;;;;5050863;28;20187;-83
2022/09/15 04:58:03;;;;;;;25.70;15.80;;;15.10;99.90;;;;;;5052100;28;20173;-84
2022/09/15 05:00:30;;;;;;;20.90;15.20;;;15.00;99.90;;;;;;5051667;28;20167;-83
2022/09/15 05:02:59;;;;;;;22.85;15.13;;;14.70;99.90;;;;;;5051085;28;20167;-84
2022/09/15 05:05:25;;;;;;;23.50;15.38;;;14.80;99.90;;;;;;5051345;28;20179;-84
2022/09/15 05:07:51;;;;;;;30.75;18.23;;;14.80;99.90;;;;;;5052125;28;20202;-83
2022/09/15 05:10:18;;;;;;;36.13;15.50;;;15.00;99.90;;;;;;5051581;28;20171;-84
2022/09/15 05:12:44;;;;;;;25.80;14.80;;;15.00;99.90;;;;;;5050854;28;20174;-83
2022/09/15 05:15:10;;;;;;;34.05;16.20;;;14.90;99.90;;;;;;5050496;28;20191;-84
2022/09/15 05:17:36;;;;;;;27.25;16.15;;;15.00;99.90;;;;;;5050798;28;20167;-83
2022/09/15 05:20:03;;;;;;;31.30;16.52;;;15.00;99.90;;;;;;5050524;28;20167;-83
2022/09/15 05:22:29;;;;;;;22.30;14.90;;;14.90;99.90;;;;;;5050597;28;20178;-84
2022/09/15 05:24:55;;;;;;;26.42;14.68;;;14.90;99.90;;;;;;5050614;28;20232;-84
2022/09/15 05:27:21;;;;;;;27.00;16.25;;;15.00;99.90;;;;;;5050373;28;20274;-82
2022/09/15 05:29:46;;;;;;;27.17;15.93;;;15.00;99.90;;;;;;5051774;28;20166;-82
2022/09/15 05:32:12;;;;;;;25.83;16.70;;;15.20;99.90;;;;;;5051173;28;20163;-83
2022/09/15 05:34:38;;;;;;;34.72;17.55;;;15.30;99.90;;;;;;5051513;28;20187;-82
2022/09/15 05:37:04;;;;;;;30.58;17.23;;;15.40;99.90;;;;;;5049955;28;20182;-82
2022/09/15 05:39:29;;;;;;;36.45;18.55;;;15.20;99.90;;;;;;5049881;28;20623;-82
2022/09/15 05:41:55;;;;;;;24.17;15.50;;;15.20;99.90;;;;;;5051422;28;20182;-82
2022/09/15 05:44:20;;;;;;;34.55;17.20;;;15.20;99.90;;;;;;5049981;28;20187;-81
2022/09/15 05:46:47;;;;;;;26.63;16.23;;;15.20;99.90;;;;;;5051332;28;20179;-80
2022/09/15 05:49:13;;;;;;;24.80;15.73;;;15.30;99.90;;;;;;5051789;28;20268;-79
2022/09/15 05:51:38;;;;;;;24.05;17.60;;;15.20;99.90;;;;;;5051196;28;20629;-80
2022/09/15 05:54:04;;;;;;;24.20;16.50;;;15.30;99.90;;;;;;5052137;28;20171;-79
2022/09/15 05:56:30;;;;;;;25.73;16.63;;;15.40;99.90;;;;;;5051953;28;20658;-80
2022/09/15 05:58:56;;;;;;;29.23;15.98;;;15.30;99.90;;;;;;5051901;28;20175;-81
2022/09/15 06:01:29;;;;;;;26.42;16.70;;;15.20;99.90;;;;;;5050472;28;20179;-83
2022/09/15 06:03:56;;;;;;;24.60;16.92;;;15.20;99.90;;;;;;5051340;28;20655;-81
2022/09/15 06:06:23;;;;;;;24.23;16.05;;;15.40;99.90;;;;;;5051305;28;20191;-80
2022/09/15 06:08:54;;;;;;;37.38;16.63;;;15.30;99.90;;;;;;5051936;28;20691;-81
2022/09/15 06:11:22;;;;;;;29.48;16.58;;;15.40;99.90;;;;;;5053911;28;20186;-83
2022/09/15 06:13:49;;;;;;;24.77;16.67;;;15.40;99.90;;;;;;5057068;28;20171;-80
2022/09/15 06:16:20;;;;;;;26.95;17.48;;;15.30;99.90;;;;;;5056968;28;20179;-86
2022/09/15 06:18:47;;;;;;;33.35;16.23;;;15.40;99.90;;;;;;5061331;28;20213;-83
2022/09/15 06:21:18;;;;;;;28.60;17.23;;;15.40;99.90;;;;;;5055306;28;20172;-84
2022/09/15 06:23:44;;;;;;;25.08;16.45;;;15.50;99.90;;;;;;5055616;28;20171;-81
2022/09/15 06:26:18;;;;;;;27.88;17.52;;;15.50;99.90;;;;;;5055556;28;20198;-88
2022/09/15 06:28:52;;;;;;;26.55;17.25;;;15.50;99.90;;;;;;5056486;28;20207;-84
2022/09/15 06:31:18;;;;;;;20.15;16.45;;;15.50;99.90;;;;;;5054733;28;20231;-82
2022/09/15 06:33:50;;;;;;;20.10;15.98;;;15.50;99.90;;;;;;5054633;28;20199;-87
2022/09/15 06:36:17;;;;;;;28.98;17.48;;;15.70;99.90;;;;;;5054530;28;20191;-81
2022/09/15 06:38:43;;;;;;;26.80;18.00;;;15.90;99.90;;;;;;5053376;28;20257;-81
2022/09/15 06:41:10;;;;;;;30.08;17.17;;;15.80;99.90;;;;;;5054294;28;20163;-84
2022/09/15 06:43:36;;;;;;;21.40;14.90;;;16.00;99.90;;;;;;5053205;28;20305;-82
2022/09/15 06:46:07;;;;;;;27.92;16.15;;;16.30;99.90;;;;;;5054568;28;20696;-83
2022/09/15 06:48:34;;;;;;;29.50;16.90;;;16.40;99.90;;;;;;5053421;28;20603;-83
2022/09/15 06:51:00;;;;;;;26.45;17.38;;;16.60;99.90;;;;;;5052334;28;20248;-84
2022/09/15 06:53:30;;;;;;;27.75;16.38;;;16.70;99.90;;;;;;5053119;28;20167;-84
2022/09/15 06:56:11;;;;;;;26.80;16.85;;;16.70;99.90;;;;;;5053106;28;20198;-83
2022/09/15 06:58:39;;;;;;;25.55;15.50;;;16.80;99.90;;;;;;5053614;28;20182;-83
2022/09/15 07:01:11;;;;;;;25.73;16.77;;;17.00;99.90;;;;;;5052697;28;20714;-85
2022/09/15 07:03:37;;;;;;;23.02;16.60;;;17.20;99.90;;;;;;5051133;28;20738;-83
2022/09/15 07:06:04;;;;;;;26.13;15.75;;;17.30;99.90;;;;;;5053905;28;20186;-83
2022/09/15 07:08:30;;;;;;;25.90;15.68;;;17.50;99.90;;;;;;5053212;28;20269;-83
2022/09/15 07:10:55;;;;;;;24.48;15.32;;;17.40;99.90;;;;;;5053022;28;20163;-85
2022/09/15 07:13:22;;;;;;;31.52;15.60;;;17.60;99.90;;;;;;5054361;28;20175;-83
2022/09/15 07:15:57;;;;;;;18.58;14.60;;;17.70;99.90;;;;;;5054319;28;20265;-83
2022/09/15 07:18:23;;;;;;;18.88;14.95;;;17.80;99.90;;;;;;5053263;28;20170;-89
2022/09/15 07:20:49;;;;;;;28.23;16.23;;;17.90;99.90;;;;;;5052942;28;20712;-85
2022/09/15 07:23:16;;;;;;;21.05;14.40;;;17.90;99.90;;;;;;5053164;28;20582;-83
2022/09/15 07:25:44;;;;;;;21.85;15.52;;;18.00;99.90;;;;;;5053419;28;20191;-80
2022/09/15 07:28:13;;;;;;;27.42;15.98;;;17.80;99.90;;;;;;5053484;28;20207;-83
2022/09/15 07:30:39;;;;;;;25.83;15.35;;;17.70;99.90;;;;;;5053697;28;20625;-82
2022/09/15 07:33:06;;;;;;;21.08;16.05;;;17.70;99.90;;;;;;5052118;28;20668;-81
2022/09/15 07:35:32;;;;;;;19.83;13.95;;;17.70;99.90;;;;;;5053353;28;20253;-81
2022/09/15 07:37:59;;;;;;;19.67;15.38;;;17.80;99.90;;;;;;5051993;28;20167;-81
2022/09/15 07:40:25;;;;;;;24.83;15.20;;;17.80;99.90;;;;;;5053365;28;20163;-81
2022/09/15 07:42:51;;;;;;;28.92;16.77;;;18.10;99.90;;;;;;5052014;28;20167;-81
2022/09/15 07:45:17;;;;;;;23.33;16.20;;;17.90;99.90;;;;;;5052286;28;20271;-84
2022/09/15 07:47:42;;;;;;;25.85;16.48;;;18.00;99.90;;;;;;5051760;28;20199;-82
2022/09/15 07:50:08;;;;;;;23.08;14.25;;;18.00;99.90;;;;;;5053802;28;20171;-82
2022/09/15 07:52:33;;;;;;;22.30;15.23;;;18.10;99.90;;;;;;5051236;28;20163;-83
2022/09/15 07:54:59;;;;;;;22.27;15.13;;;18.20;99.90;;;;;;5051505;28;20187;-82
2022/09/15 07:57:26;;;;;;;21.42;15.68;;;18.30;99.90;;;;;;5053127;28;20533;-82
2022/09/15 07:59:51;;;;;;;24.98;15.18;;;18.30;99.90;;;;;;5052398;28;20179;-81
2022/09/15 08:02:19;;;;;;;21.88;14.75;;;18.50;99.90;;;;;;5052896;28;20169;-81
2022/09/15 08:04:45;;;;;;;27.50;16.77;;;18.60;99.90;;;;;;5052729;28;20191;-82
2022/09/15 08:07:11;;;;;;;22.85;14.35;;;18.60;99.90;;;;;;5053078;28;20171;-80
2022/09/15 08:09:38;;;;;;;18.90;13.82;;;18.80;99.90;;;;;;5051506;28;20665;-80
2022/09/15 08:12:05;;;;;;;17.27;14.57;;;18.90;99.90;;;;;;5051458;28;20163;-81
2022/09/15 08:14:31;;;;;;;20.50;17.08;;;19.10;99.90;;;;;;5052333;28;20197;-81
2022/09/15 08:17:03;;;;;;;18.50;14.50;;;19.10;99.90;;;;;;5051347;28;20633;-83
2022/09/15 08:19:30;;;;;;;26.05;17.33;;;19.10;99.90;;;;;;5051461;28;20218;-82
2022/09/15 08:21:56;;;;;;;27.50;18.25;;;19.30;99.90;;;;;;5051331;28;20163;-86
2022/09/15 08:24:22;;;;;;;20.38;14.25;;;19.50;99.90;;;;;;5051420;28;20218;-82
2022/09/15 08:26:49;;;;;;;30.05;14.38;;;19.70;99.90;;;;;;5052446;28;20190;-81
2022/09/15 08:29:16;;;;;;;19.33;15.40;;;19.70;99.90;;;;;;5050941;28;20207;-83
2022/09/15 08:31:44;;;;;;;17.60;13.38;;;19.70;99.90;;;;;;5050085;28;21311;-83
2022/09/15 08:34:12;;;;;;;16.52;12.57;;;19.80;99.90;;;;;;5044045;28;20247;-84
2022/09/15 08:36:38;;;;;;;18.63;12.50;;;19.90;99.90;;;;;;5051411;28;20629;-83
2022/09/15 08:39:04;;;;;;;25.50;13.18;;;19.90;99.90;;;;;;5051439;28;20182;-83
2022/09/15 08:41:36;;;;;;;19.08;13.48;;;20.00;99.90;;;;;;5052622;28;20198;-82
2022/09/15 08:44:23;;;;;;;16.48;12.32;;;19.90;99.90;;;;;;5051009;28;20178;-82
2022/09/15 08:46:59;;;;;;;18.17;11.40;;;20.10;99.90;;;;;;5051174;28;20182;-82
2022/09/15 08:49:35;;;;;;;31.35;12.35;;;20.30;99.90;;;;;;5050576;28;20306;-83
2022/09/15 08:52:06;;;;;;;24.85;10.15;;;20.10;99.90;;;;;;5038774;28;20258;-81
2022/09/15 08:54:33;;;;;;;39.55;12.27;;;20.20;99.90;;;;;;5031019;28;20202;-80
2022/09/15 08:57:03;;;;;;;23.23;10.93;;;20.10;99.90;;;;;;5032055;28;20529;-81
2022/09/15 08:59:34;;;;;;;14.77;11.07;;;20.20;99.90;;;;;;5029153;28;20172;-83
2022/09/15 09:02:12;;;;;;;23.63;11.75;;;20.30;99.90;;;;;;5036525;28;20624;-82
2022/09/15 09:04:55;;;;;;;23.67;12.77;;;20.20;99.90;;;;;;5033059;28;20669;-82
2022/09/15 09:07:47;;;;;;;20.25;10.98;;;20.10;99.90;;;;;;5039859;28;20179;-82
2022/09/15 09:10:23;;;;;;;28.13;11.63;;;20.00;99.90;;;;;;5048882;28;20187;-82
2022/09/15 09:13:01;;;;;;;20.77;10.48;;;20.10;99.90;;;;;;5051091;28;20247;-82
2022/09/15 09:15:56;;;;;;;12.82;9.27;;;19.90;99.90;;;;;;5049990;28;20234;-81
2022/09/15 09:18:53;;;;;;;15.98;9.65;;;19.90;99.90;;;;;;5012040;28;20172;-85
2022/09/15 09:21:26;;;;;;;20.73;9.10;;;19.80;99.90;;;;;;5026035;28;20587;-81
2022/09/15 09:24:13;;;;;;;15.43;9.07;;;19.80;99.90;;;;;;5031958;28;20247;-84
2022/09/15 09:26:39;;;;;;;9.50;8.50;;;19.90;99.90;;;;;;5030723;28;20182;-80
2022/09/15 09:29:26;;;;;;;9.45;8.65;;;20.00;99.90;;;;;;5031591;28;20203;-81
2022/09/15 09:31:55;;;;;;;14.60;7.85;;;20.10;99.90;;;;;;5041522;28;20175;-82
2022/09/15 09:34:40;;;;;;;9.52;8.18;;;20.40;99.90;;;;;;5039175;28;20392;-83
2022/09/15 09:37:12;;;;;;;12.00;7.15;;;20.40;99.90;;;;;;5031665;28;20182;-80
2022/09/15 09:39:37;;;;;;;15.70;7.95;;;20.70;99.90;;;;;;5051407;28;20171;-84
2022/09/15 09:42:04;;;;;;;12.15;8.65;;;20.70;99.90;;;;;;5051610;28;20216;-81
2022/09/15 09:44:31;;;;;;;24.90;8.55;;;20.90;99.90;;;;;;5051250;28;20277;-81
2022/09/15 09:47:00;;;;;;;7.55;6.78;;;21.00;99.90;;;;;;5052108;28;20179;-81
2022/09/15 09:49:48;;;;;;;16.35;6.85;;;21.30;99.90;;;;;;5050106;28;20210;-80
2022/09/15 09:52:38;;;;;;;9.00;5.55;;;21.20;99.90;;;;;;5053718;28;20171;-81
2022/09/15 09:55:18;;;;;;;7.18;4.22;;;21.30;99.90;;;;;;5054482;28;20183;-78
2022/09/15 09:57:44;;;;;;;4.55;3.88;;;21.40;99.90;;;;;;5056478;28;20179;-80
2022/09/15 10:00:34;;;;;;;11.57;3.95;;;21.40;99.90;;;;;;5054923;28;20200;-83
2022/09/15 10:03:19;;;;;;;6.85;3.00;;;21.60;99.90;;;;;;5055545;28;20171;-79
2022/09/15 10:06:00;;;;;;;7.43;4.93;;;21.60;99.90;;;;;;5053557;28;20179;-79
2022/09/15 10:08:26;;;;;;;8.70;4.47;;;21.50;99.90;;;;;;5055180;28;20226;-78
2022/09/15 10:10:54;;;;;;;13.25;7.82;;;21.20;99.90;;;;;;5055098;28;20637;-78
2022/09/15 10:13:20;;;;;;;5.53;2.30;;;20.80;99.90;;;;;;5055100;28;20221;-79
2022/09/15 10:15:53;;;;;;;3.35;1.75;;;20.90;99.90;;;;;;5055376;28;20191;-88
2022/09/15 10:18:36;;;;;;;8.52;1.77;;;21.00;99.90;;;;;;5055832;28;20190;-85
2022/09/15 10:21:08;;;;;;;3.22;2.25;;;20.90;99.90;;;;;;5055986;28;20175;-85
2022/09/15 10:23:34;;;;;;;3.13;2.20;;;20.70;99.90;;;;;;5056467;28;20167;-84
2022/09/15 10:26:20;;;;;;;7.90;2.28;;;20.50;99.90;;;;;;5056015;28;20206;-86
2022/09/15 10:29:11;;;;;;;3.97;2.67;;;20.50;99.90;;;;;;5056247;28;20285;-86
2022/09/15 10:31:37;;;;;;;7.45;6.35;;;20.30;99.90;;;;;;5056019;28;20172;-86
2022/09/15 10:34:29;;;;;;;4.13;2.00;;;20.30;99.90;;;;;;5055856;28;20254;-86
2022/09/15 10:37:12;;;;;;;6.03;1.65;;;20.50;99.90;;;;;;5056212;28;20625;-86
2022/09/15 10:39:54;;;;;;;7.75;2.15;;;20.60;99.90;;;;;;5056291;28;20258;-83
2022/09/15 10:42:35;;;;;;;6.00;1.55;;;20.60;99.90;;;;;;5055967;28;20202;-80
2022/09/15 10:45:10;;;;;;;3.17;2.00;;;20.60;99.90;;;;;;5052709;28;20195;-85
2022/09/15 10:47:53;;;;;;;14.32;2.25;;;21.10;99.90;;;;;;5054793;28;20249;-79
2022/09/15 10:50:37;;;;;;;6.47;1.60;;;21.60;99.90;;;;;;5053779;28;20262;-79
2022/09/15 10:53:20;;;;;;;11.27;2.15;;;21.90;99.90;;;;;;5054690;28;20629;-79
2022/09/15 10:56:02;;;;;;;2.63;1.70;;;21.80;99.90;;;;;;5054055;28;20195;-79
2022/09/15 10:58:37;;;;;;;8.95;1.38;;;21.70;99.90;;;;;;5053912;28;20171;-79
2022/09/15 11:01:29;;;;;;;10.68;1.42;;;21.60;99.90;;;;;;5053130;28;20194;-79
2022/09/15 11:04:25;;;;;;;5.65;1.85;;;21.30;99.90;;;;;;5052521;28;20163;-80
2022/09/15 11:06:53;;;;;;;3.92;1.73;;;20.90;99.90;;;;;;5053642;28;20179;-80
2022/09/15 11:09:24;;;;;;;12.18;2.30;;;20.60;99.90;;;;;;5054589;28;20293;-79
2022/09/15 11:12:20;;;;;;;5.85;2.58;;;20.20;99.90;;;;;;5055261;28;20164;-79
2022/09/15 11:15:08;;;;;;;5.35;2.35;;;20.10;99.90;;;;;;5040778;28;20201;-79
2022/09/15 11:17:52;;;;;;;5.18;2.17;;;20.00;99.90;;;;;;5079880;28;20211;-78
2022/09/15 11:20:30;;;;;;;7.65;5.10;;;19.90;99.90;;;;;;5078170;28;20171;-80
2022/09/15 11:23:22;;;;;;;5.15;3.25;;;19.60;99.90;;;;;;5079167;28;20169;-79
2022/09/15 11:25:59;;;;;;;1.98;1.70;;;19.80;99.90;;;;;;5079788;28;20230;-79
2022/09/15 11:28:32;;;;;;;7.72;1.98;;;19.90;99.90;;;;;;5069073;28;20194;-80
2022/09/15 11:31:18;;;;;;;6.18;2.00;;;19.90;99.90;;;;;;5078855;28;20178;-80
2022/09/15 11:34:02;;;;;;;8.65;2.20;;;19.90;99.90;;;;;;5077298;28;20167;-79
2022/09/15 11:36:36;;;;;;;9.35;1.02;;;19.60;99.90;;;;;;5056816;28;20165;-79
2022/09/15 11:39:18;;;;;;;4.07;0.82;;;19.00;99.90;;;;;;5054308;28;20177;-82
2022/09/15 11:42:03;;;;;;;3.30;1.15;;;19.10;99.90;;;;;;5057258;28;20238;-80
2022/09/15 11:44:31;;;;;;;4.85;0.77;;;19.10;99.90;;;;;;5053988;28;20647;-79
2022/09/15 11:47:14;;;;;;;6.60;0.80;;;19.10;99.90;;;;;;5053837;28;20193;-79
2022/09/15 11:49:49;;;;;;;3.05;0.82;;;18.70;99.90;;;;;;5053544;28;20657;-79
2022/09/15 11:52:23;;;;;;;4.50;1.20;;;18.10;99.90;;;;;;5052580;28;20165;-78
2022/09/15 11:54:57;;;;;;;2.25;0.95;;;18.00;99.90;;;;;;5053759;28;20190;-79
2022/09/15 11:58:03;;;;;;;1.75;0.70;;;18.10;99.90;;;;;;5053185;28;20655;-79
2022/09/15 12:00:30;;;;;;;2.15;0.90;;;18.10;99.90;;;;;;5052799;28;20187;-78
2022/09/15 12:03:26;;;;;;;4.68;1.00;;;18.20;99.90;;;;;;5052260;28;20652;-79
2022/09/15 12:06:15;;;;;;;3.53;0.68;;;18.10;99.90;;;;;;5053345;28;20218;-78
2022/09/15 12:08:52;;;;;;;2.92;0.68;;;17.80;99.90;;;;;;5052405;28;20218;-79
2022/09/15 12:11:21;;;;;;;5.13;1.25;;;18.00;99.90;;;;;;5053468;28;20698;-83
2022/09/15 12:13:48;;;;;;;4.88;0.90;;;18.10;99.90;;;;;;5053134;28;20167;-79
2022/09/15 12:16:15;;;;;;;7.05;0.98;;;18.30;99.90;;;;;;5053077;28;20601;-80
2022/09/15 12:18:53;;;;;;;2.45;0.60;;;18.80;99.90;;;;;;5043995;28;20203;-80
2022/09/15 12:21:49;;;;;;;4.57;0.70;;;19.20;99.90;;;;;;5033242;28;20172;-79
2022/09/15 12:24:38;;;;;;;3.75;1.65;;;19.50;99.90;;;;;;5032974;28;20174;-79
2022/09/15 12:27:04;;;;;;;2.70;0.85;;;19.90;99.90;;;;;;5033102;28;20222;-79
2022/09/15 12:29:38;;;;;;;3.45;1.33;;;19.70;99.90;;;;;;5033276;28;20219;-79
2022/09/15 12:32:22;;;;;;;3.10;0.77;;;19.70;99.90;;;;;;5033282;28;20201;-79
2022/09/15 12:35:00;;;;;;;3.60;0.80;;;19.40;99.90;;;;;;5032628;28;20267;-80
2022/09/15 12:37:52;;;;;;;4.38;0.60;;;19.60;99.90;;;;;;5032839;28;20182;-79
2022/09/15 12:40:37;;;;;;;2.53;0.93;;;19.50;99.90;;;;;;5028688;28;20198;-81
2022/09/15 12:43:15;;;;;;;4.20;1.33;;;19.70;99.90;;;;;;5032885;28;20156;-82
2022/09/15 12:45:43;;;;;;;6.20;1.00;;;19.80;99.90;;;;;;5032437;28;20226;-80
2022/09/15 12:48:14;;;;;;;2.38;0.63;;;19.70;99.90;;;;;;5032239;28;20206;-80
2022/09/15 12:50:42;;;;;;;2.25;0.55;;;19.50;99.90;;;;;;5032572;28;20243;-80
2022/09/15 12:53:29;;;;;;;3.83;0.82;;;19.20;99.90;;;;;;5032591;28;20164;-80
2022/09/15 12:56:26;;;;;;;4.57;0.60;;;19.20;99.90;;;;;;5032626;28;20202;-80